sensor_id;sensor_type;location;lat;lon;timestamp;pressure;altitude;pressure_sealevel;temperature;humidity
53270;BME280;39159;45.634;9.420;2023-06-22T00:01:18;99149.78;;;23.50;86.99
53270;BME280;39159;45.634;9.420;2023-06-22T00:03:44;99159.34;;;23.49;86.69
53270;BME280;39159;45.634;9.420;2023-06-22T00:06:09;99162.91;;;23.49;86.60
53270;BME280;39159;45.634;9.420;2023-06-22T00:08:35;99152.97;;;23.52;86.73
53270;BME280;39159;45.634;9.420;2023-06-22T00:11:00;99158.16;;;23.53;86.63
53270;BME280;39159;45.634;9.420;2023-06-22T00:13:26;99160.56;;;23.55;87.18
53270;BME280;39159;45.634;9.420;2023-06-22T00:15:51;99160.94;;;23.53;87.71
53270;BME280;39159;45.634;9.420;2023-06-22T00:18:17;99168.53;;;23.56;87.49
53270;BME280;39159;45.634;9.420;2023-06-22T00:20:42;99159.34;;;23.49;86.84
53270;BME280;39159;45.634;9.420;2023-06-22T00:23:11;99158.91;;;23.43;87.11
53270;BME280;39159;45.634;9.420;2023-06-22T00:25:38;99151.38;;;23.44;87.21
53270;BME280;39159;45.634;9.420;2023-06-22T00:28:05;99153.31;;;23.43;87.37
53270;BME280;39159;45.634;9.420;2023-06-22T00:30:32;99160.88;;;23.39;87.49
53270;BME280;39159;45.634;9.420;2023-06-22T00:32:58;99160.91;;;23.43;88.07
53270;BME280;39159;45.634;9.420;2023-06-22T00:35:24;99164.09;;;23.41;87.97
53270;BME280;39159;45.634;9.420;2023-06-22T00:37:57;99156.50;;;23.38;90.34
53270;BME280;39159;45.634;9.420;2023-06-22T00:40:29;99156.06;;;23.36;90.25
53270;BME280;39159;45.634;9.420;2023-06-22T00:42:55;99152.09;;;23.33;90.09
53270;BME280;39159;45.634;9.420;2023-06-22T00:45:24;99150.81;;;23.20;91.04
53270;BME280;39159;45.634;9.420;2023-06-22T00:47:54;99147.63;;;23.14;92.27
53270;BME280;39159;45.634;9.420;2023-06-22T00:50:22;99154.78;;;23.15;92.85
53270;BME280;39159;45.634;9.420;2023-06-22T00:52:56;99158.34;;;23.16;92.91
53270;BME280;39159;45.634;9.420;2023-06-22T00:55:22;99155.94;;;23.11;93.11
53270;BME280;39159;45.634;9.420;2023-06-22T00:57:48;99156.31;;;23.09;93.82
53270;BME280;39159;45.634;9.420;2023-06-22T01:00:14;99151.94;;;23.12;93.54
53270;BME280;39159;45.634;9.420;2023-06-22T01:02:43;99148.41;;;23.15;94.03
53270;BME280;39159;45.634;9.420;2023-06-22T01:05:14;99146.38;;;23.12;93.96
53270;BME280;39159;45.634;9.420;2023-06-22T01:13:22;99163.03;;;23.01;95.50
53270;BME280;39159;45.634;9.420;2023-06-22T01:16:00;99163.84;;;23.05;95.88
53270;BME280;39159;45.634;9.420;2023-06-22T01:18:30;99154.72;;;23.08;96.00
53270;BME280;39159;45.634;9.420;2023-06-22T01:20:56;99159.88;;;23.06;95.87
53270;BME280;39159;45.634;9.420;2023-06-22T01:23:37;99164.25;;;23.04;96.19
53270;BME280;39159;45.634;9.420;2023-06-22T01:26:18;99158.25;;;23.05;96.69
53270;BME280;39159;45.634;9.420;2023-06-22T01:28:53;99154.25;;;22.99;97.39
53270;BME280;39159;45.634;9.420;2023-06-22T01:31:22;99163.03;;;23.01;97.05
53270;BME280;39159;45.634;9.420;2023-06-22T01:33:51;99161.84;;;23.02;97.44
53270;BME280;39159;45.634;9.420;2023-06-22T01:36:18;99165.41;;;23.03;97.13
53270;BME280;39159;45.634;9.420;2023-06-22T01:38:44;99155.88;;;23.04;97.27
53270;BME280;39159;45.634;9.420;2023-06-22T01:41:11;99162.97;;;22.97;97.47
53270;BME280;39159;45.634;9.420;2023-06-22T01:43:37;99165.72;;;22.94;98.09
53270;BME280;39159;45.634;9.420;2023-06-22T01:46:04;99163.34;;;22.96;98.55
53270;BME280;39159;45.634;9.420;2023-06-22T01:48:30;99167.78;;;23.01;98.17
53270;BME280;39159;45.634;9.420;2023-06-22T01:50:57;99159.84;;;23.03;98.62
53270;BME280;39159;45.634;9.420;2023-06-22T01:53:23;99166.19;;;23.00;98.74
53270;BME280;39159;45.634;9.420;2023-06-22T01:55:48;99163.75;;;22.98;99.66
53270;BME280;39159;45.634;9.420;2023-06-22T01:58:15;99165.81;;;23.01;99.80
53270;BME280;39159;45.634;9.420;2023-06-22T02:00:45;99166.19;;;23.03;100.00
53270;BME280;39159;45.634;9.420;2023-06-22T02:03:19;99165.44;;;23.06;99.65
53270;BME280;39159;45.634;9.420;2023-06-22T02:05:54;99155.13;;;23.10;99.88
53270;BME280;39159;45.634;9.420;2023-06-22T02:08:29;99159.09;;;23.06;100.00
53270;BME280;39159;45.634;9.420;2023-06-22T02:10:56;99162.28;;;23.08;100.00
53270;BME280;39159;45.634;9.420;2023-06-22T02:13:24;99160.25;;;23.05;100.00
53270;BME280;39159;45.634;9.420;2023-06-22T02:15:50;99162.25;;;23.04;100.00
53270;BME280;39159;45.634;9.420;2023-06-22T02:18:16;99163.81;;;23.02;100.00
53270;BME280;39159;45.634;9.420;2023-06-22T02:20:42;99154.28;;;23.03;100.00
53270;BME280;39159;45.634;9.420;2023-06-22T02:23:08;99152.69;;;23.02;100.00
53270;BME280;39159;45.634;9.420;2023-06-22T02:25:34;99151.47;;;22.99;100.00
53270;BME280;39159;45.634;9.420;2023-06-22T02:28:00;99159.38;;;22.97;100.00
53270;BME280;39159;45.634;9.420;2023-06-22T02:30:26;99160.56;;;22.96;100.00
53270;BME280;39159;45.634;9.420;2023-06-22T02:32:51;99156.97;;;22.95;100.00
53270;BME280;39159;45.634;9.420;2023-06-22T02:35:27;99159.34;;;22.93;100.00
53270;BME280;39159;45.634;9.420;2023-06-22T02:38:00;99157.72;;;22.89;100.00
53270;BME280;39159;45.634;9.420;2023-06-22T02:40:26;99162.09;;;22.90;100.00
53270;BME280;39159;45.634;9.420;2023-06-22T02:42:52;99160.13;;;22.90;100.00
53270;BME280;39159;45.634;9.420;2023-06-22T02:45:18;99156.94;;;22.88;100.00
53270;BME280;39159;45.634;9.420;2023-06-22T02:47:43;99154.91;;;22.82;100.00
53270;BME280;39159;45.634;9.420;2023-06-22T02:50:09;99151.69;;;22.80;100.00
53270;BME280;39159;45.634;9.420;2023-06-22T02:52:35;99144.09;;;22.76;100.00
53270;BME280;39159;45.634;9.420;2023-06-22T02:55:00;99145.72;;;22.77;100.00
53270;BME280;39159;45.634;9.420;2023-06-22T02:57:26;99145.31;;;22.75;100.00
53270;BME280;39159;45.634;9.420;2023-06-22T02:59:51;99140.06;;;22.67;100.00
53270;BME280;39159;45.634;9.420;2023-06-22T03:02:17;99140.44;;;22.65;100.00
53270;BME280;39159;45.634;9.420;2023-06-22T03:04:43;99142.84;;;22.67;100.00
53270;BME280;39159;45.634;9.420;2023-06-22T03:07:09;99147.25;;;22.68;100.00
53270;BME280;39159;45.634;9.420;2023-06-22T03:09:34;99135.69;;;22.66;100.00
53270;BME280;39159;45.634;9.420;2023-06-22T03:12:00;99142.88;;;22.70;100.00
53270;BME280;39159;45.634;9.420;2023-06-22T03:14:27;99139.69;;;22.72;100.00
53270;BME280;39159;45.634;9.420;2023-06-22T03:16:52;99150.81;;;22.72;100.00
53270;BME280;39159;45.634;9.420;2023-06-22T03:19:18;99156.47;;;22.79;100.00
53270;BME280;39159;45.634;9.420;2023-06-22T03:21:44;99156.09;;;22.84;100.00
53270;BME280;39159;45.634;9.420;2023-06-22T03:24:10;99154.56;;;22.90;100.00
53270;BME280;39159;45.634;9.420;2023-06-22T03:26:35;99168.50;;;22.94;100.00
53270;BME280;39159;45.634;9.420;2023-06-22T03:29:01;99170.53;;;22.97;100.00
53270;BME280;39159;45.634;9.420;2023-06-22T03:31:26;99167.34;;;22.98;99.79
53270;BME280;39159;45.634;9.420;2023-06-22T03:33:52;99165.00;;;23.01;99.55
53270;BME280;39159;45.634;9.420;2023-06-22T03:36:18;99160.25;;;23.01;99.79
53270;BME280;39159;45.634;9.420;2023-06-22T03:38:48;99143.47;;;22.97;100.00
53270;BME280;39159;45.634;9.420;2023-06-22T03:41:14;99143.84;;;22.96;99.89
53270;BME280;39159;45.634;9.420;2023-06-22T03:43:39;99141.88;;;22.93;99.80
53270;BME280;39159;45.634;9.420;2023-06-22T03:46:05;99148.19;;;22.90;99.50
53270;BME280;39159;45.634;9.420;2023-06-22T03:48:30;99147.81;;;22.88;99.61
53270;BME280;39159;45.634;9.420;2023-06-22T03:50:56;99148.97;;;22.87;98.83
53270;BME280;39159;45.634;9.420;2023-06-22T03:53:21;99147.81;;;22.91;99.88
53270;BME280;39159;45.634;9.420;2023-06-22T03:55:51;99151.00;;;22.93;99.20
53270;BME280;39159;45.634;9.420;2023-06-22T03:58:18;99141.06;;;22.96;99.30
53270;BME280;39159;45.634;9.420;2023-06-22T04:00:47;99142.66;;;22.93;99.33
53270;BME280;39159;45.634;9.420;2023-06-22T04:03:14;99151.00;;;22.93;98.25
53270;BME280;39159;45.634;9.420;2023-06-22T04:05:40;99157.38;;;22.94;97.97
53270;BME280;39159;45.634;9.420;2023-06-22T04:08:06;99154.94;;;22.89;97.50
53270;BME280;39159;45.634;9.420;2023-06-22T04:10:32;99158.88;;;22.84;98.35
53270;BME280;39159;45.634;9.420;2023-06-22T04:12:57;99162.03;;;22.83;99.29
53270;BME280;39159;45.634;9.420;2023-06-22T04:15:23;99165.22;;;22.81;99.04
53270;BME280;39159;45.634;9.420;2023-06-22T04:17:48;99160.09;;;22.87;99.04
53270;BME280;39159;45.634;9.420;2023-06-22T04:20:14;99166.50;;;22.91;98.56
53270;BME280;39159;45.634;9.420;2023-06-22T04:22:39;99168.50;;;22.94;98.47
53270;BME280;39159;45.634;9.420;2023-06-22T04:25:06;99158.97;;;22.95;97.94
53270;BME280;39159;45.634;9.420;2023-06-22T04:27:33;99152.22;;;22.96;97.31
53270;BME280;39159;45.634;9.420;2023-06-22T04:30:03;99142.28;;;22.98;96.24
53270;BME280;39159;45.634;9.420;2023-06-22T04:32:29;99135.50;;;22.96;96.78
53270;BME280;39159;45.634;9.420;2023-06-22T04:34:54;99141.56;;;23.02;96.07
53270;BME280;39159;45.634;9.420;2023-06-22T04:37:20;99128.84;;;23.04;95.84
53270;BME280;39159;45.634;9.420;2023-06-22T04:39:49;99128.88;;;23.08;94.88
53270;BME280;39159;45.634;9.420;2023-06-22T04:42:15;99129.72;;;23.15;94.90
53270;BME280;39159;45.634;9.420;2023-06-22T04:44:41;99132.53;;;23.19;95.46
53270;BME280;39159;45.634;9.420;2023-06-22T04:47:08;99129.75;;;23.19;95.22
53270;BME280;39159;45.634;9.420;2023-06-22T04:49:35;99141.69;;;23.23;95.08
53270;BME280;39159;45.634;9.420;2023-06-22T04:52:06;99141.72;;;23.27;95.42
53270;BME280;39159;45.634;9.420;2023-06-22T04:54:33;99141.34;;;23.28;96.01
53270;BME280;39159;45.634;9.420;2023-06-22T04:57:04;99145.28;;;23.27;96.09
53270;BME280;39159;45.634;9.420;2023-06-22T04:59:35;99141.34;;;23.32;96.32
53270;BME280;39159;45.634;9.420;2023-06-22T05:02:02;99142.56;;;23.34;96.36
53270;BME280;39159;45.634;9.420;2023-06-22T05:04:29;99143.75;;;23.33;94.33
53270;BME280;39159;45.634;9.420;2023-06-22T05:06:57;99142.53;;;23.31;93.86
53270;BME280;39159;45.634;9.420;2023-06-22T05:09:23;99141.75;;;23.30;93.15
53270;BME280;39159;45.634;9.420;2023-06-22T05:11:50;99141.38;;;23.35;92.25
53270;BME280;39159;45.634;9.420;2023-06-22T05:14:16;99136.63;;;23.40;91.21
53270;BME280;39159;45.634;9.420;2023-06-22T05:16:42;99138.63;;;23.46;90.67
53270;BME280;39159;45.634;9.420;2023-06-22T05:19:08;99121.16;;;23.53;90.34
53270;BME280;39159;45.634;9.420;2023-06-22T05:21:34;99132.72;;;23.58;89.77
53270;BME280;39159;45.634;9.420;2023-06-22T05:23:59;99128.38;;;23.65;90.03
53270;BME280;39159;45.634;9.420;2023-06-22T05:26:27;99138.34;;;23.69;89.43
53270;BME280;39159;45.634;9.420;2023-06-22T05:28:53;99131.59;;;23.74;89.55
53270;BME280;39159;45.634;9.420;2023-06-22T05:31:19;99132.44;;;23.78;89.70
53270;BME280;39159;45.634;9.420;2023-06-22T05:33:46;99130.06;;;23.80;88.99
53270;BME280;39159;45.634;9.420;2023-06-22T05:36:12;99127.25;;;23.80;88.71
53270;BME280;39159;45.634;9.420;2023-06-22T05:38:38;99139.16;;;23.73;88.30
53270;BME280;39159;45.634;9.420;2023-06-22T05:41:04;99135.22;;;23.78;88.72
53270;BME280;39159;45.634;9.420;2023-06-22T05:43:29;99130.06;;;23.80;87.89
53270;BME280;39159;45.634;9.420;2023-06-22T05:45:55;99142.41;;;23.90;88.38
53270;BME280;39159;45.634;9.420;2023-06-22T05:48:20;99163.53;;;23.94;90.21
53270;BME280;39159;45.634;9.420;2023-06-22T05:50:46;99174.72;;;24.05;90.66
53270;BME280;39159;45.634;9.420;2023-06-22T05:53:12;99176.75;;;24.12;89.91
53270;BME280;39159;45.634;9.420;2023-06-22T05:55:37;99181.53;;;24.18;90.25
53270;BME280;39159;45.634;9.420;2023-06-22T05:58:03;99192.31;;;24.27;90.66
53270;BME280;39159;45.634;9.420;2023-06-22T06:00:31;99187.16;;;24.33;91.49
53270;BME280;39159;45.634;9.420;2023-06-22T06:02:57;99181.97;;;24.38;93.22
53270;BME280;39159;45.634;9.420;2023-06-22T06:05:22;99186.78;;;24.41;92.02
53270;BME280;39159;45.634;9.420;2023-06-22T06:07:49;99197.16;;;24.45;91.53
53270;BME280;39159;45.634;9.420;2023-06-22T06:10:14;99207.53;;;24.48;89.94
53270;BME280;39159;45.634;9.420;2023-06-22T06:12:40;99211.53;;;24.54;89.10
53270;BME280;39159;45.634;9.420;2023-06-22T06:15:06;99211.56;;;24.57;90.63
53270;BME280;39159;45.634;9.420;2023-06-22T06:17:31;99217.91;;;24.54;91.68
53270;BME280;39159;45.634;9.420;2023-06-22T06:19:58;99227.09;;;24.55;92.05
53270;BME280;39159;45.634;9.420;2023-06-22T06:22:23;99228.28;;;24.54;92.63
53270;BME280;39159;45.634;9.420;2023-06-22T06:24:49;99220.72;;;24.51;93.83
53270;BME280;39159;45.634;9.420;2023-06-22T06:27:15;99214.28;;;24.47;94.83
53270;BME280;39159;45.634;9.420;2023-06-22T06:29:43;99211.97;;;24.59;94.88
53270;BME280;39159;45.634;9.420;2023-06-22T06:32:11;99196.00;;;24.85;89.60
53270;BME280;39159;45.634;9.420;2023-06-22T06:34:36;99195.63;;;24.97;88.02
53270;BME280;39159;45.634;9.420;2023-06-22T06:37:02;99199.63;;;25.25;88.24
53270;BME280;39159;45.634;9.420;2023-06-22T06:39:27;99197.19;;;25.45;84.64
53270;BME280;39159;45.634;9.420;2023-06-22T06:41:53;99201.50;;;25.75;82.15
53270;BME280;39159;45.634;9.420;2023-06-22T06:44:18;99204.59;;;26.09;81.29
53270;BME280;39159;45.634;9.420;2023-06-22T06:46:43;99203.66;;;26.34;77.98
53270;BME280;39159;45.634;9.420;2023-06-22T06:49:09;99201.75;;;26.16;76.69
53270;BME280;39159;45.634;9.420;2023-06-22T06:51:34;99204.66;;;25.91;77.17
53270;BME280;39159;45.634;9.420;2023-06-22T06:54:00;99200.97;;;26.12;77.93
53270;BME280;39159;45.634;9.420;2023-06-22T06:56:25;99190.16;;;26.18;74.95
53270;BME280;39159;45.634;9.420;2023-06-22T06:58:51;99191.78;;;26.15;75.20
53270;BME280;39159;45.634;9.420;2023-06-22T07:01:16;99204.94;;;26.18;75.77
53270;BME280;39159;45.634;9.420;2023-06-22T07:03:42;99207.22;;;26.41;72.87
53270;BME280;39159;45.634;9.420;2023-06-22T07:06:08;99204.34;;;26.52;72.80
53270;BME280;39159;45.634;9.420;2023-06-22T07:08:34;99209.38;;;26.82;71.90
53270;BME280;39159;45.634;9.420;2023-06-22T07:11:01;99201.34;;;26.84;69.12
53270;BME280;39159;45.634;9.420;2023-06-22T07:13:27;99200.72;;;27.15;68.48
53270;BME280;39159;45.634;9.420;2023-06-22T07:15:53;99200.09;;;27.41;64.36
53270;BME280;39159;45.634;9.420;2023-06-22T07:18:18;99200.75;;;27.53;63.74
53270;BME280;39159;45.634;9.420;2023-06-22T07:20:44;99199.16;;;27.52;59.98
53270;BME280;39159;45.634;9.420;2023-06-22T07:23:09;99196.16;;;27.69;57.08
53270;BME280;39159;45.634;9.420;2023-06-22T07:25:35;99199.56;;;27.88;57.35
53270;BME280;39159;45.634;9.420;2023-06-22T07:28:04;99201.59;;;28.18;54.60
53270;BME280;39159;45.634;9.420;2023-06-22T07:30:31;99186.53;;;28.36;54.17
53270;BME280;39159;45.634;9.420;2023-06-22T07:32:58;99186.31;;;28.50;55.53
53270;BME280;39159;45.634;9.420;2023-06-22T07:35:24;99190.28;;;28.80;53.64
53270;BME280;39159;45.634;9.420;2023-06-22T07:37:50;99180.41;;;28.95;53.93
53270;BME280;39159;45.634;9.420;2023-06-22T07:40:15;99169.69;;;29.13;54.45
53270;BME280;39159;45.634;9.420;2023-06-22T07:42:41;99173.03;;;29.28;52.04
53270;BME280;39159;45.634;9.420;2023-06-22T07:45:07;99171.09;;;29.45;51.70
53270;BME280;39159;45.634;9.420;2023-06-22T07:47:34;99178.03;;;29.61;49.39
53270;BME280;39159;45.634;9.420;2023-06-22T07:50:01;99167.22;;;29.79;48.71
53270;BME280;39159;45.634;9.420;2023-06-22T07:52:29;99158.72;;;30.03;48.97
53270;BME280;39159;45.634;9.420;2023-06-22T07:54:55;99168.66;;;30.07;48.13
53270;BME280;39159;45.634;9.420;2023-06-22T07:57:21;99165.00;;;29.90;47.62
53270;BME280;39159;45.634;9.420;2023-06-22T07:59:46;99160.06;;;29.54;50.51
53270;BME280;39159;45.634;9.420;2023-06-22T08:02:12;99152.34;;;29.39;50.40
53270;BME280;39159;45.634;9.420;2023-06-22T08:04:38;99145.19;;;29.78;48.02
53270;BME280;39159;45.634;9.420;2023-06-22T08:07:04;99135.22;;;29.93;48.18
53270;BME280;39159;45.634;9.420;2023-06-22T08:09:31;99137.53;;;30.14;47.87
53270;BME280;39159;45.634;9.420;2023-06-22T08:11:58;99128.47;;;30.07;47.54
53270;BME280;39159;45.634;9.420;2023-06-22T08:14:25;99128.53;;;30.03;47.98
53270;BME280;39159;45.634;9.420;2023-06-22T08:16:51;99119.44;;;30.15;47.13
53270;BME280;39159;45.634;9.420;2023-06-22T08:19:17;99119.28;;;30.39;48.33
53270;BME280;39159;45.634;9.420;2023-06-22T08:21:43;99121.44;;;30.35;47.01
53270;BME280;39159;45.634;9.420;2023-06-22T08:24:08;99111.75;;;30.36;47.53
53270;BME280;39159;45.634;9.420;2023-06-22T08:26:35;99119.81;;;30.34;48.33
53270;BME280;39159;45.634;9.420;2023-06-22T08:29:03;99130.41;;;30.63;47.65
53270;BME280;39159;45.634;9.420;2023-06-22T08:31:28;99135.59;;;30.81;47.57
53270;BME280;39159;45.634;9.420;2023-06-22T08:33:54;99139.66;;;30.80;46.42
53270;BME280;39159;45.634;9.420;2023-06-22T08:36:19;99153.81;;;30.92;47.03
53270;BME280;39159;45.634;9.420;2023-06-22T08:38:45;99150.13;;;30.46;47.68
53270;BME280;39159;45.634;9.420;2023-06-22T08:41:15;99149.47;;;30.39;48.01
53270;BME280;39159;45.634;9.420;2023-06-22T08:43:41;99140.59;;;30.56;47.29
53270;BME280;39159;45.634;9.420;2023-06-22T08:46:08;99137.72;;;30.60;47.52
53270;BME280;39159;45.634;9.420;2023-06-22T08:48:33;99140.28;;;30.71;47.28
53270;BME280;39159;45.634;9.420;2023-06-22T08:50:59;99140.78;;;30.98;46.77
53270;BME280;39159;45.634;9.420;2023-06-22T08:53:24;99145.44;;;31.05;45.23
53270;BME280;39159;45.634;9.420;2023-06-22T08:55:50;99148.38;;;31.47;44.66
53270;BME280;39159;45.634;9.420;2023-06-22T08:58:16;99146.66;;;31.79;44.56
53270;BME280;39159;45.634;9.420;2023-06-22T09:00:41;99150.56;;;31.98;43.10
53270;BME280;39159;45.634;9.420;2023-06-22T09:03:07;99145.31;;;31.71;41.96
53270;BME280;39159;45.634;9.420;2023-06-22T09:05:33;99140.81;;;31.86;41.41
53270;BME280;39159;45.634;9.420;2023-06-22T09:07:58;99147.03;;;31.94;40.90
53270;BME280;39159;45.634;9.420;2023-06-22T09:10:25;99152.84;;;32.16;41.17
53270;BME280;39159;45.634;9.420;2023-06-22T09:12:50;99154.53;;;32.39;40.98
53270;BME280;39159;45.634;9.420;2023-06-22T09:15:16;99161.00;;;32.52;39.68
53270;BME280;39159;45.634;9.420;2023-06-22T09:17:41;99159.06;;;32.49;41.42
53270;BME280;39159;45.634;9.420;2023-06-22T09:20:07;99160.09;;;32.68;41.11
53270;BME280;39159;45.634;9.420;2023-06-22T09:22:35;99162.91;;;32.81;39.40
53270;BME280;39159;45.634;9.420;2023-06-22T09:25:01;99161.16;;;32.96;39.16
53270;BME280;39159;45.634;9.420;2023-06-22T09:27:28;99157.31;;;33.03;40.19
53270;BME280;39159;45.634;9.420;2023-06-22T09:29:53;99150.75;;;33.06;39.61
53270;BME280;39159;45.634;9.420;2023-06-22T09:32:19;99159.09;;;33.22;38.99
53270;BME280;39159;45.634;9.420;2023-06-22T09:34:44;99145.81;;;33.32;37.46
53270;BME280;39159;45.634;9.420;2023-06-22T09:37:10;99135.72;;;33.44;38.01
53270;BME280;39159;45.634;9.420;2023-06-22T09:39:35;99143.66;;;33.36;39.24
53270;BME280;39159;45.634;9.420;2023-06-22T09:42:02;99139.72;;;33.34;38.89
53270;BME280;39159;45.634;9.420;2023-06-22T09:44:27;99135.19;;;33.58;38.53
53270;BME280;39159;45.634;9.420;2023-06-22T09:46:53;99125.31;;;33.85;37.04
53270;BME280;39159;45.634;9.420;2023-06-22T09:49:18;99125.06;;;34.01;36.46
53270;BME280;39159;45.634;9.420;2023-06-22T09:51:44;99115.41;;;34.12;35.43
53270;BME280;39159;45.634;9.420;2023-06-22T09:54:09;99105.97;;;34.15;35.95
53270;BME280;39159;45.634;9.420;2023-06-22T09:56:35;99110.13;;;34.01;35.52
53270;BME280;39159;45.634;9.420;2023-06-22T09:59:00;99095.50;;;34.34;33.97
53270;BME280;39159;45.634;9.420;2023-06-22T10:01:26;99097.09;;;34.44;33.60
53270;BME280;39159;45.634;9.420;2023-06-22T10:03:55;99090.56;;;34.65;33.15
53270;BME280;39159;45.634;9.420;2023-06-22T10:06:21;99089.78;;;34.74;33.17
53270;BME280;39159;45.634;9.420;2023-06-22T10:08:47;99091.06;;;34.73;32.04
53270;BME280;39159;45.634;9.420;2023-06-22T10:11:13;99089.09;;;34.52;32.81
53270;BME280;39159;45.634;9.420;2023-06-22T10:13:39;99083.53;;;34.30;34.10
53270;BME280;39159;45.634;9.420;2023-06-22T10:16:05;99081.34;;;34.34;33.60
53270;BME280;39159;45.634;9.420;2023-06-22T10:18:30;99084.41;;;34.17;33.21
53270;BME280;39159;45.634;9.420;2023-06-22T10:20:56;99077.06;;;34.29;33.89
53270;BME280;39159;45.634;9.420;2023-06-22T10:23:21;99072.72;;;34.46;34.58
53270;BME280;39159;45.634;9.420;2023-06-22T10:25:47;99073.66;;;34.53;35.29
53270;BME280;39159;45.634;9.420;2023-06-22T10:28:13;99071.22;;;34.73;35.53
53270;BME280;39159;45.634;9.420;2023-06-22T10:30:40;99059.88;;;34.92;34.22
53270;BME280;39159;45.634;9.420;2023-06-22T10:33:09;99053.59;;;34.87;33.97
53270;BME280;39159;45.634;9.420;2023-06-22T10:35:35;99044.13;;;34.63;33.63
53270;BME280;39159;45.634;9.420;2023-06-22T10:38:03;99033.72;;;34.97;34.62
53270;BME280;39159;45.634;9.420;2023-06-22T10:40:29;99033.59;;;35.19;34.49
53270;BME280;39159;45.634;9.420;2023-06-22T10:42:54;99036.25;;;35.22;32.86
53270;BME280;39159;45.634;9.420;2023-06-22T10:45:20;99022.09;;;35.22;32.14
53270;BME280;39159;45.634;9.420;2023-06-22T10:47:46;99020.47;;;35.40;31.94
53270;BME280;39159;45.634;9.420;2023-06-22T10:50:11;99022.97;;;35.47;33.31
53270;BME280;39159;45.634;9.420;2023-06-22T10:52:37;99028.59;;;35.75;31.76
53270;BME280;39159;45.634;9.420;2023-06-22T10:55:02;99021.56;;;35.94;31.31
53270;BME280;39159;45.634;9.420;2023-06-22T10:57:29;99013.22;;;36.24;31.09
53270;BME280;39159;45.634;9.420;2023-06-22T10:59:54;99011.59;;;36.32;31.09
53270;BME280;39159;45.634;9.420;2023-06-22T11:02:20;99009.38;;;36.36;30.12
53270;BME280;39159;45.634;9.420;2023-06-22T11:04:45;99002.34;;;36.22;30.33
53270;BME280;39159;45.634;9.420;2023-06-22T11:07:11;98998.47;;;36.35;30.51
53270;BME280;39159;45.634;9.420;2023-06-22T11:09:36;98985.72;;;35.97;30.29
53270;BME280;39159;45.634;9.420;2023-06-22T11:12:03;98987.75;;;35.72;30.76
53270;BME280;39159;45.634;9.420;2023-06-22T11:14:29;98982.97;;;35.36;31.61
53270;BME280;39159;45.634;9.420;2023-06-22T11:16:54;98983.16;;;35.14;32.11
53270;BME280;39159;45.634;9.420;2023-06-22T11:19:21;98975.81;;;35.49;31.53
53270;BME280;39159;45.634;9.420;2023-06-22T11:21:47;98969.97;;;35.62;30.94
53270;BME280;39159;45.634;9.420;2023-06-22T11:24:12;98964.16;;;35.47;33.00
53270;BME280;39159;45.634;9.420;2023-06-22T11:26:37;98962.34;;;35.68;32.02
53270;BME280;39159;45.634;9.420;2023-06-22T11:29:03;98962.38;;;35.59;31.20
53270;BME280;39159;45.634;9.420;2023-06-22T11:31:34;98962.13;;;35.39;30.78
53270;BME280;39159;45.634;9.420;2023-06-22T11:33:59;98959.22;;;35.57;30.88
53270;BME280;39159;45.634;9.420;2023-06-22T11:36:25;98964.88;;;35.76;30.63
53270;BME280;39159;45.634;9.420;2023-06-22T11:38:51;98968.00;;;35.78;30.25
53270;BME280;39159;45.634;9.420;2023-06-22T11:41:16;98959.91;;;35.85;30.55
53270;BME280;39159;45.634;9.420;2023-06-22T11:43:42;98957.78;;;36.04;30.47
53270;BME280;39159;45.634;9.420;2023-06-22T11:46:07;98954.69;;;36.17;30.18
53270;BME280;39159;45.634;9.420;2023-06-22T11:48:33;98943.28;;;36.26;30.03
53270;BME280;39159;45.634;9.420;2023-06-22T11:50:58;98942.47;;;36.02;29.86
53270;BME280;39159;45.634;9.420;2023-06-22T11:53:25;98948.69;;;36.24;30.23
53270;BME280;39159;45.634;9.420;2023-06-22T11:55:51;98951.81;;;36.26;29.34
53270;BME280;39159;45.634;9.420;2023-06-22T11:58:18;98948.47;;;36.28;30.02
53270;BME280;39159;45.634;9.420;2023-06-22T12:00:43;98949.25;;;36.28;30.58
53270;BME280;39159;45.634;9.420;2023-06-22T12:03:10;98942.97;;;36.00;31.38
53270;BME280;39159;45.634;9.420;2023-06-22T12:05:36;98940.63;;;35.56;30.42
53270;BME280;39159;45.634;9.420;2023-06-22T12:08:02;98942.50;;;35.59;31.51
53270;BME280;39159;45.634;9.420;2023-06-22T12:10:27;98939.19;;;35.94;31.83
53270;BME280;39159;45.634;9.420;2023-06-22T12:12:56;98941.50;;;36.05;30.20
53270;BME280;39159;45.634;9.420;2023-06-22T12:15:23;98930.28;;;35.77;30.78
53270;BME280;39159;45.634;9.420;2023-06-22T12:17:48;98924.94;;;36.03;30.71
53270;BME280;39159;45.634;9.420;2023-06-22T12:20:14;98928.06;;;35.81;30.68
53270;BME280;39159;45.634;9.420;2023-06-22T12:22:40;98933.13;;;35.77;31.29
53270;BME280;39159;45.634;9.420;2023-06-22T12:25:07;98939.88;;;35.89;32.12
53270;BME280;39159;45.634;9.420;2023-06-22T12:27:32;98941.00;;;36.16;31.76
53270;BME280;39159;45.634;9.420;2023-06-22T12:29:58;98951.22;;;36.22;31.35
53270;BME280;39159;45.634;9.420;2023-06-22T12:32:23;98951.38;;;36.19;30.98
53270;BME280;39159;45.634;9.420;2023-06-22T12:34:49;98950.66;;;36.33;30.61
53270;BME280;39159;45.634;9.420;2023-06-22T12:37:15;98948.53;;;36.19;30.08
53270;BME280;39159;45.634;9.420;2023-06-22T12:39:40;98955.50;;;36.18;30.62
53270;BME280;39159;45.634;9.420;2023-06-22T12:42:06;98947.28;;;36.20;30.32
53270;BME280;39159;45.634;9.420;2023-06-22T12:44:34;98952.38;;;35.82;30.73
53270;BME280;39159;45.634;9.420;2023-06-22T12:47:00;98951.03;;;35.93;30.79
53270;BME280;39159;45.634;9.420;2023-06-22T12:49:25;98958.38;;;35.75;31.38
53270;BME280;39159;45.634;9.420;2023-06-22T12:51:51;98958.44;;;35.57;31.44
53270;BME280;39159;45.634;9.420;2023-06-22T12:54:16;98953.53;;;35.57;31.32
53270;BME280;39159;45.634;9.420;2023-06-22T12:56:42;98951.31;;;35.09;31.70
53270;BME280;39159;45.634;9.420;2023-06-22T12:59:10;98939.53;;;34.83;32.03
53270;BME280;39159;45.634;9.420;2023-06-22T13:01:35;98950.09;;;34.55;34.24